Fritch, TX (79036)

7:56 AM CDT on May 29, 2015 (GMT -0500)
Borger Country Club | | Change Station
CLOSE
Current Station
Personal Weather Station
Location: Borger, TX
Elevation: 3239 ft
Nearby Weather Stations

Elev 3239 ft 35.64 °N, 101.45 °W | Updated 10 seconds ago

Partly Cloudy
Partly Cloudy
55.6 °F
Feels Like 55.6 °F
N
2.0
Wind Variable Wind from NW
Gusts 5.0 mph

Today
High -- | Low -- °F
--% Chance of Precip.
Yesterday
High -- | Low -- °F
Precip. -- in
6:33 AM 8:54 PM
Waxing Gibbous, 83% visible
Pressure 30.03 in
Visibility 8.0 miles
Clouds Few 300 ft
Dew Point 53 °F
Humidity 92%
Rainfall 0.00 in
Snow Depth Not available.
UV 0.0 out of 12
Pollen 4.40 out of 12
Air Quality Not available.
Flu Activity Sporadic
SPECI KBGD 291246Z AUTO 32007KT 8SM FEW003 13/12 A3003 RMK AO2

More Conditions Fewer Conditions

Pressure 30.03 in
Visibility 8.0 miles
Clouds Few 300 ft
Dew Point 53 °F
Humidity 92%
Rainfall 0.00 in
Snow Depth Not available.
UV 0.0 out of 12
Pollen 4.40 out of 12
Air Quality Not available.
Flu Activity Sporadic
SPECI KBGD 291246Z AUTO 32007KT 8SM FEW003 13/12 A3003 RMK AO2

More Conditions Fewer Conditions

Nowcast | as of 7:52 am CDT on May 29, 2015

An area of patchy dense fog will continue to slowly move to the southeast at 15 mph through 10 am. Visibilities will vary greatly over short distances going from 3 miles to as low as a quarter mile. Drivers should use caution during the morning commute in the communities of Perryton...Elmwood...Darrouzett...Panhandle... Canadian...and Pampa.

×

10-Day Weather Forecast

Almanac

Astronomy

May. 29, 2015 Rise Set
Actual Time
Civil Twilight
Nautical Twilight
Astronomical Twilight
Moon
Length of Visible Light
Length of Day
Tomorrow will be .
, % of the Moon is Illuminated

Today's Extremes

State Highs State Lows

Community

WunderPhotos

Upload Photos

1,825,249 photos uploaded!

WunderBlogs® & News

Nearby

Air Quality

  Air Quality AQ Index Pollutant
Not available.

Snow Depth

Station Depth Elevation

Earthquake Activity

City Distance Mag. Time & Date
Minimum magnitude displayed is 2.5.

Coastal Water Temperatures

Place Temperature

Stations

Nearby Weather Stations

Station Location Temp. Windchill Dew Point Humidity Wind Precip. Elev Updated Type